Preview of NWS' New Version of Forecast
This preview is not operational and should not be used for support decisions.

Terminal Aerodrome Forecast (TAF)

Issued by National Weather Service (NWS)

                            
867 
FTUS42 KKEY 241139
TAFEYW
TAF
KEYW 241139Z 2412/2512 10011G17KT P6SM VCSH SCT025 SCT080
     FM241800 12012G20KT P6SM FEW025 SCT080=